createdAt,value
2019-02-04T00:00:33.239Z,1018.52
2019-02-04T00:01:33.186Z,1018.52
2019-02-04T00:02:33.166Z,1018.50
2019-02-04T00:03:33.155Z,1018.50
2019-02-04T00:04:33.149Z,1018.50
2019-02-04T00:05:33.132Z,1018.52
2019-02-04T00:06:33.139Z,1018.51
2019-02-04T00:07:33.181Z,1018.54
2019-02-04T00:08:33.139Z,1018.52
2019-02-04T00:09:33.117Z,1018.54
2019-02-04T00:10:33.097Z,1018.55
2019-02-04T00:11:33.123Z,1018.60
2019-02-04T00:12:33.058Z,1018.59
2019-02-04T00:13:33.059Z,1018.54
2019-02-04T00:14:33.037Z,1018.54
2019-02-04T00:15:33.023Z,1018.52
2019-02-04T00:16:40.572Z,1018.53
2019-02-04T00:17:34.000Z,1018.53
2019-02-04T00:18:33.005Z,1018.54
2019-02-04T00:19:32.985Z,1018.55
2019-02-04T00:20:32.981Z,1018.59
2019-02-04T00:21:32.998Z,1018.59
2019-02-04T00:22:32.948Z,1018.58
2019-02-04T00:23:32.936Z,1018.60
2019-02-04T00:24:32.925Z,1018.62
2019-02-04T00:25:32.926Z,1018.60
2019-02-04T00:26:32.903Z,1018.62
2019-02-04T00:27:32.911Z,1018.64
2019-02-04T00:28:32.885Z,1018.64
2019-02-04T00:29:32.924Z,1018.62
2019-02-04T00:30:33.532Z,1018.64
2019-02-04T00:31:32.863Z,1018.65
2019-02-04T00:32:32.923Z,1018.70
2019-02-04T00:33:32.826Z,1018.68
2019-02-04T00:34:32.819Z,1018.71
2019-02-04T00:35:32.814Z,1018.71
2019-02-04T00:36:32.811Z,1018.73
2019-02-04T00:37:32.786Z,1018.76
2019-02-04T00:38:32.769Z,1018.73
2019-02-04T00:39:32.771Z,1018.75
2019-02-04T00:40:32.751Z,1018.74
2019-02-04T00:41:32.745Z,1018.81
2019-02-04T00:42:32.742Z,1018.77
2019-02-04T00:43:32.731Z,1018.79
2019-02-04T00:44:32.710Z,1018.88
2019-02-04T00:45:32.700Z,1018.87
2019-02-04T00:46:32.689Z,1018.91
2019-02-04T00:47:32.688Z,1018.88
2019-02-04T00:48:32.664Z,1018.88
2019-02-04T00:49:32.789Z,1018.96
2019-02-04T00:50:32.682Z,1018.94
2019-02-04T00:51:32.631Z,1019.00
2019-02-04T00:52:32.617Z,1018.97
2019-02-04T00:53:32.606Z,1019.08
2019-02-04T00:54:32.599Z,1019.04
2019-02-04T00:55:32.584Z,1019.05
2019-02-04T00:56:32.582Z,1019.06
2019-02-04T00:57:32.563Z,1019.06
2019-02-04T00:58:32.553Z,1019.11
2019-02-04T00:59:32.557Z,1019.12
2019-02-04T01:00:32.531Z,1019.15
2019-02-04T01:01:32.536Z,1019.19
2019-02-04T01:02:32.513Z,1019.20
2019-02-04T01:03:32.504Z,1019.23
2019-02-04T01:04:32.514Z,1019.19
2019-02-04T01:05:32.481Z,1019.19
2019-02-04T01:06:32.469Z,1019.21
2019-02-04T01:07:32.454Z,1019.25
2019-02-04T01:08:32.443Z,1019.27
2019-02-04T01:09:32.452Z,1019.31
2019-02-04T01:10:32.438Z,1019.29
2019-02-04T01:11:32.412Z,1019.33
2019-02-04T01:12:32.401Z,1019.34
2019-02-04T01:13:32.388Z,1019.34
2019-02-04T01:14:32.396Z,1019.36
2019-02-04T01:15:32.375Z,1019.32
2019-02-04T01:16:33.508Z,1019.32
2019-02-04T01:17:32.344Z,1019.35
2019-02-04T01:18:32.544Z,1019.36
2019-02-04T01:19:32.324Z,1019.34
2019-02-04T01:20:32.321Z,1019.34
2019-02-04T01:21:32.303Z,1019.38
2019-02-04T01:22:32.309Z,1019.38
2019-02-04T01:23:32.289Z,1019.38
2019-02-04T01:24:32.275Z,1019.43
2019-02-04T01:25:32.356Z,1019.48
2019-02-04T01:26:32.253Z,1019.45
2019-02-04T01:27:32.242Z,1019.50
2019-02-04T01:28:33.009Z,1019.51
2019-02-04T01:29:32.216Z,1019.52
2019-02-04T01:30:32.226Z,1019.54
2019-02-04T01:31:32.278Z,1019.58
2019-02-04T01:32:33.046Z,1019.56
2019-02-04T01:33:32.176Z,1019.53
2019-02-04T01:34:32.162Z,1019.60
2019-02-04T01:35:32.159Z,1019.60
2019-02-04T01:36:32.145Z,1019.64
2019-02-04T01:37:32.162Z,1019.67
2019-02-04T01:38:32.145Z,1019.68
2019-02-04T01:39:32.114Z,1019.69
2019-02-04T01:40:32.104Z,1019.70
2019-02-04T01:41:33.288Z,1019.73
2019-02-04T01:42:32.078Z,1019.71
2019-02-04T01:43:34.014Z,1019.76
2019-02-04T01:44:32.060Z,1019.78
2019-02-04T01:45:32.049Z,1019.76
2019-02-04T01:46:32.033Z,1019.82
2019-02-04T01:47:32.050Z,1019.85
2019-02-04T01:48:32.049Z,1019.83
2019-02-04T01:49:32.034Z,1019.86
2019-02-04T01:50:31.993Z,1019.87
2019-02-04T01:51:31.980Z,1019.86
2019-02-04T01:52:31.979Z,1019.89
2019-02-04T01:53:31.961Z,1019.91
2019-02-04T01:54:32.084Z,1019.94
2019-02-04T01:55:31.944Z,1019.88
2019-02-04T01:56:31.929Z,1019.91
2019-02-04T01:57:31.917Z,1019.99
2019-02-04T01:58:31.959Z,1019.98
2019-02-04T01:59:31.897Z,1019.97
2019-02-04T02:00:31.939Z,1019.95
2019-02-04T02:01:31.869Z,1020.00
2019-02-04T02:02:33.050Z,1020.01
2019-02-04T02:03:31.849Z,1020.02
2019-02-04T02:04:31.839Z,1020.01
2019-02-04T02:05:31.826Z,1020.05
2019-02-04T02:06:31.820Z,1020.07
2019-02-04T02:07:31.844Z,1020.06
2019-02-04T02:08:31.795Z,1020.04
2019-02-04T02:09:31.792Z,1020.09
2019-02-04T02:10:31.808Z,1020.04
2019-02-04T02:11:31.762Z,1020.03
2019-02-04T02:12:31.751Z,1020.02
2019-02-04T02:13:31.739Z,1020.03
2019-02-04T02:14:31.734Z,1020.04
2019-02-04T02:15:31.720Z,1020.04
2019-02-04T02:16:31.734Z,1020.10
2019-02-04T02:17:31.703Z,1020.06
2019-02-04T02:18:31.693Z,1020.11
2019-02-04T02:19:31.676Z,1020.14
2019-02-04T02:20:31.673Z,1020.10
2019-02-04T02:21:31.714Z,1020.14
2019-02-04T02:22:31.648Z,1020.13
2019-02-04T02:23:31.633Z,1020.16
2019-02-04T02:24:31.630Z,1020.18
2019-02-04T02:25:31.617Z,1020.15
2019-02-04T02:26:31.619Z,1020.15
2019-02-04T02:27:31.592Z,1020.16
2019-02-04T02:28:31.597Z,1020.17
2019-02-04T02:29:31.638Z,1020.23
2019-02-04T02:30:31.558Z,1020.20
2019-02-04T02:31:31.555Z,1020.22
2019-02-04T02:32:31.591Z,1020.19
2019-02-04T02:33:31.526Z,1020.21
2019-02-04T02:34:31.516Z,1020.22
2019-02-04T02:35:31.503Z,1020.27
2019-02-04T02:36:31.501Z,1020.26
2019-02-04T02:37:31.486Z,1020.25
2019-02-04T02:38:31.532Z,1020.28
2019-02-04T02:39:31.466Z,1020.27
2019-02-04T02:40:31.454Z,1020.26
2019-02-04T02:41:31.441Z,1020.30
2019-02-04T02:42:31.426Z,1020.31
2019-02-04T02:43:31.428Z,1020.32
2019-02-04T02:44:31.439Z,1020.36
2019-02-04T02:45:31.396Z,1020.34
2019-02-04T02:46:31.389Z,1020.36
2019-02-04T02:47:38.488Z,1020.36
2019-02-04T02:48:32.364Z,1020.39
2019-02-04T02:49:31.353Z,1020.41
2019-02-04T02:50:31.381Z,1020.43
2019-02-04T02:51:31.333Z,1020.45
2019-02-04T02:52:31.347Z,1020.52
2019-02-04T02:53:31.313Z,1020.52
2019-02-04T02:54:31.308Z,1020.56
2019-02-04T02:55:31.284Z,1020.58
2019-02-04T02:56:31.324Z,1020.57
2019-02-04T02:57:31.271Z,1020.60
2019-02-04T02:58:31.253Z,1020.62
2019-02-04T02:59:31.240Z,1020.62
2019-02-04T03:00:31.246Z,1020.64
2019-02-04T03:01:31.222Z,1020.63
2019-02-04T03:02:31.209Z,1020.64
2019-02-04T03:03:31.202Z,1020.71
2019-02-04T03:04:31.243Z,1020.71
2019-02-04T03:05:31.176Z,1020.85
2019-02-04T03:06:31.164Z,1020.76
2019-02-04T03:07:31.156Z,1020.78
2019-02-04T03:08:31.148Z,1020.80
2019-02-04T03:09:31.132Z,1020.80
2019-02-04T03:10:31.253Z,1020.79
2019-02-04T03:11:31.115Z,1020.85
2019-02-04T03:12:31.106Z,1020.89
2019-02-04T03:13:31.099Z,1020.95
2019-02-04T03:14:31.114Z,1020.90
2019-02-04T03:15:31.105Z,1020.97
2019-02-04T03:16:31.064Z,1020.97
2019-02-04T03:17:31.049Z,1021.02
2019-02-04T03:18:31.046Z,1021.00
2019-02-04T03:19:31.023Z,1021.01
2019-02-04T03:20:31.028Z,1021.02
2019-02-04T03:21:31.005Z,1021.06
2019-02-04T03:22:30.994Z,1021.04
2019-02-04T03:23:31.008Z,1021.06
2019-02-04T03:24:30.970Z,1021.06
2019-02-04T03:25:30.959Z,1021.07
2019-02-04T03:26:30.985Z,1021.14
2019-02-04T03:27:30.964Z,1021.12
2019-02-04T03:28:30.934Z,1021.12
2019-02-04T03:29:30.916Z,1021.12
2019-02-04T03:30:30.941Z,1021.09
2019-02-04T03:31:30.954Z,1021.13
2019-02-04T03:32:30.889Z,1021.12
2019-02-04T03:33:30.879Z,1021.21
2019-02-04T03:34:30.863Z,1021.15
2019-02-04T03:35:30.854Z,1021.23
2019-02-04T03:36:30.843Z,1021.22
2019-02-04T03:37:30.838Z,1021.26
2019-02-04T03:38:30.815Z,1021.29
2019-02-04T03:39:30.806Z,1021.27
2019-02-04T03:40:30.892Z,1021.29
2019-02-04T03:41:30.820Z,1021.30
2019-02-04T03:42:30.782Z,1021.26
2019-02-04T03:43:30.760Z,1021.25
2019-02-04T03:44:30.758Z,1021.30
2019-02-04T03:45:30.740Z,1021.27
2019-02-04T03:46:30.743Z,1021.34
2019-02-04T03:47:30.718Z,1021.34
2019-02-04T03:48:30.724Z,1021.39
2019-02-04T03:49:30.701Z,1021.37
2019-02-04T03:50:30.690Z,1021.39
2019-02-04T03:51:30.676Z,1021.42
2019-02-04T03:52:30.704Z,1021.46
2019-02-04T03:53:30.658Z,1021.45
2019-02-04T03:54:30.647Z,1021.47
2019-02-04T03:55:30.636Z,1021.47
2019-02-04T03:56:30.620Z,1021.47
2019-02-04T03:57:30.608Z,1021.49
2019-02-04T03:58:30.610Z,1021.50
2019-02-04T03:59:30.591Z,1021.48
2019-02-04T04:00:30.582Z,1021.49
2019-02-04T04:01:30.568Z,1021.46
2019-02-04T04:02:30.555Z,1021.55
2019-02-04T04:03:30.595Z,1021.49
2019-02-04T04:04:30.538Z,1021.48
2019-02-04T04:05:30.526Z,1021.53
2019-02-04T04:06:30.511Z,1021.51
2019-02-04T04:07:30.504Z,1021.50
2019-02-04T04:08:30.535Z,1021.53
2019-02-04T04:09:30.485Z,1021.59
2019-02-04T04:10:30.467Z,1021.58
2019-02-04T04:11:30.457Z,1021.60
2019-02-04T04:12:30.451Z,1021.63
2019-02-04T04:13:30.444Z,1021.68
2019-02-04T04:14:30.458Z,1021.67
2019-02-04T04:15:30.555Z,1021.69
2019-02-04T04:16:30.406Z,1021.70
2019-02-04T04:17:30.389Z,1021.69
2019-02-04T04:18:30.387Z,1021.68
2019-02-04T04:19:30.426Z,1021.70
2019-02-04T04:20:30.367Z,1021.71
2019-02-04T04:21:30.351Z,1021.79
2019-02-04T04:22:30.363Z,1021.75
2019-02-04T04:23:30.342Z,1021.80
2019-02-04T04:24:30.320Z,1021.79
2019-02-04T04:25:30.303Z,1021.82
2019-02-04T04:26:30.298Z,1021.83
2019-02-04T04:27:30.313Z,1021.82
2019-02-04T04:28:30.271Z,1021.86
2019-02-04T04:29:30.269Z,1021.86
2019-02-04T04:30:30.252Z,1021.89
2019-02-04T04:31:30.251Z,1021.89
2019-02-04T04:32:30.241Z,1021.88
2019-02-04T04:33:30.236Z,1021.89
2019-02-04T04:34:30.210Z,1021.90
2019-02-04T04:35:30.206Z,1021.97
2019-02-04T04:36:30.193Z,1021.98
2019-02-04T04:37:30.177Z,1021.94
2019-02-04T04:38:30.187Z,1021.96
2019-02-04T04:39:30.151Z,1021.97
2019-02-04T04:40:30.159Z,1021.98
2019-02-04T04:41:30.136Z,1021.95
2019-02-04T04:42:30.123Z,1021.98
2019-02-04T04:43:30.145Z,1022.02
2019-02-04T04:44:30.098Z,1022.01
2019-02-04T04:45:30.083Z,1022.00
2019-02-04T04:46:30.078Z,1022.04
2019-02-04T04:47:30.103Z,1022.07
2019-02-04T04:48:30.056Z,1022.10
2019-02-04T04:49:30.046Z,1022.04
2019-02-04T04:50:30.034Z,1022.05
2019-02-04T04:51:30.025Z,1022.05
2019-02-04T04:52:30.024Z,1022.12
2019-02-04T04:53:30.057Z,1022.16
2019-02-04T04:54:30.000Z,1022.09
2019-02-04T04:55:29.985Z,1022.12
2019-02-04T04:56:29.973Z,1022.16
2019-02-04T04:57:29.954Z,1022.11
2019-02-04T04:58:30.001Z,1022.12
2019-02-04T04:59:29.966Z,1022.12
2019-02-04T05:00:29.924Z,1022.09
2019-02-04T05:01:29.910Z,1022.07
2019-02-04T05:02:29.904Z,1022.14
2019-02-04T05:03:29.976Z,1022.17
2019-02-04T05:04:29.883Z,1022.16
2019-02-04T05:05:29.874Z,1022.18
2019-02-04T05:06:29.863Z,1022.15
2019-02-04T05:07:29.852Z,1022.15
2019-02-04T05:08:29.835Z,1022.13
2019-02-04T05:09:29.884Z,1022.11
2019-02-04T05:10:29.871Z,1022.10
2019-02-04T05:11:29.925Z,1022.12
2019-02-04T05:12:29.799Z,1022.15
2019-02-04T05:13:29.779Z,1022.21
2019-02-04T05:14:29.774Z,1022.20
2019-02-04T05:15:29.771Z,1022.17
2019-02-04T05:16:29.753Z,1022.16
2019-02-04T05:17:29.737Z,1022.22
2019-02-04T05:18:37.718Z,1022.23
2019-02-04T05:19:30.712Z,1022.18
2019-02-04T05:20:29.715Z,1022.18
2019-02-04T05:21:29.701Z,1022.22
2019-02-04T05:22:29.684Z,1022.24
2019-02-04T05:23:29.677Z,1022.25
2019-02-04T05:24:29.665Z,1022.27
2019-02-04T05:25:29.667Z,1022.22
2019-02-04T05:26:29.695Z,1022.26
2019-02-04T05:27:29.631Z,1022.29
2019-02-04T05:28:29.620Z,1022.28
2019-02-04T05:29:29.611Z,1022.31
2019-02-04T05:30:29.595Z,1022.31
2019-02-04T05:31:29.617Z,1022.34
2019-02-04T05:32:29.579Z,1022.34
2019-02-04T05:33:29.576Z,1022.40
2019-02-04T05:34:29.555Z,1022.36
2019-02-04T05:35:29.544Z,1022.38
2019-02-04T05:36:29.535Z,1022.38
2019-02-04T05:37:29.555Z,1022.46
2019-02-04T05:38:29.526Z,1022.47
2019-02-04T05:39:29.496Z,1022.47
2019-02-04T05:40:29.487Z,1022.47
2019-02-04T05:41:29.510Z,1022.47
2019-02-04T05:42:29.469Z,1022.45
2019-02-04T05:43:29.461Z,1022.49
2019-02-04T05:44:29.450Z,1022.46
2019-02-04T05:45:29.434Z,1022.46
2019-02-04T05:46:29.426Z,1022.49
2019-02-04T05:47:29.465Z,1022.48
2019-02-04T05:48:29.399Z,1022.51
2019-02-04T05:49:29.387Z,1022.52
2019-02-04T05:50:29.380Z,1022.48
2019-02-04T05:51:29.368Z,1022.50
2019-02-04T05:52:29.392Z,1022.55
2019-02-04T05:53:29.349Z,1022.52
2019-02-04T05:54:29.344Z,1022.59
2019-02-04T05:55:30.649Z,1022.54
2019-02-04T05:56:29.312Z,1022.57
2019-02-04T05:57:29.305Z,1022.57
2019-02-04T05:58:29.360Z,1022.60
2019-02-04T05:59:29.285Z,1022.62
2019-02-04T06:00:29.276Z,1022.58
2019-02-04T06:01:29.259Z,1022.58
2019-02-04T06:02:29.246Z,1022.63
2019-02-04T06:03:29.260Z,1022.62
2019-02-04T06:04:29.244Z,1022.67
2019-02-04T06:05:29.212Z,1022.65
2019-02-04T06:06:29.209Z,1022.68
2019-02-04T06:07:29.191Z,1022.70
2019-02-04T06:08:29.182Z,1022.67
2019-02-04T06:09:29.201Z,1022.64
2019-02-04T06:10:29.172Z,1022.66
2019-02-04T06:11:29.152Z,1022.68
2019-02-04T06:12:29.145Z,1022.73
2019-02-04T06:13:29.131Z,1022.69
2019-02-04T06:14:29.154Z,1022.75
2019-02-04T06:15:29.117Z,1022.79
2019-02-04T06:16:29.100Z,1022.76
2019-02-04T06:17:29.089Z,1022.79
2019-02-04T06:18:29.090Z,1022.83
2019-02-04T06:19:29.062Z,1022.86
2019-02-04T06:20:29.090Z,1022.86
2019-02-04T06:21:29.045Z,1022.79
2019-02-04T06:22:29.034Z,1022.85
2019-02-04T06:23:29.029Z,1022.84
2019-02-04T06:24:29.016Z,1022.87
2019-02-04T06:25:29.036Z,1022.87
2019-02-04T06:26:28.992Z,1022.91
2019-02-04T06:27:28.980Z,1022.91
2019-02-04T06:28:28.964Z,1022.92
2019-02-04T06:29:28.954Z,1022.91
2019-02-04T06:30:28.989Z,1022.90
2019-02-04T06:31:28.935Z,1022.97
2019-02-04T06:32:28.927Z,1022.95
2019-02-04T06:33:28.914Z,1022.98
2019-02-04T06:34:28.914Z,1022.99
2019-02-04T06:35:28.915Z,1023.02
2019-02-04T06:36:28.892Z,1023.03
2019-02-04T06:37:28.866Z,1023.08
2019-02-04T06:38:28.855Z,1023.08
2019-02-04T06:39:28.843Z,1023.06
2019-02-04T06:40:28.879Z,1023.03
2019-02-04T06:41:28.822Z,1023.06
2019-02-04T06:42:28.821Z,1023.05
2019-02-04T06:43:28.804Z,1023.06
2019-02-04T06:44:28.789Z,1023.03
2019-02-04T06:45:28.792Z,1023.05
2019-02-04T06:46:28.804Z,1023.11
2019-02-04T06:47:28.757Z,1023.08
2019-02-04T06:48:28.746Z,1023.11
2019-02-04T06:49:28.736Z,1023.14
2019-02-04T06:50:28.732Z,1023.15
2019-02-04T06:51:28.716Z,1023.18
2019-02-04T06:52:28.715Z,1023.14
2019-02-04T06:53:28.692Z,1023.16
2019-02-04T06:54:28.683Z,1023.16
2019-02-04T06:55:28.674Z,1023.18
2019-02-04T06:56:28.664Z,1023.22
2019-02-04T06:57:28.675Z,1023.19
2019-02-04T06:58:28.667Z,1023.18
2019-02-04T06:59:28.630Z,1023.23
2019-02-04T07:00:28.621Z,1023.19
2019-02-04T07:01:28.606Z,1023.23
2019-02-04T07:02:28.654Z,1023.21
2019-02-04T07:03:28.591Z,1023.22
2019-02-04T07:04:28.576Z,1023.29
2019-02-04T07:05:28.561Z,1023.23
2019-02-04T07:06:28.555Z,1023.24
2019-02-04T07:07:28.553Z,1023.26
2019-02-04T07:08:28.547Z,1023.33
2019-02-04T07:09:28.522Z,1023.30
2019-02-04T07:10:28.508Z,1023.32
2019-02-04T07:11:28.496Z,1023.28
2019-02-04T07:12:28.490Z,1023.29
2019-02-04T07:13:28.481Z,1023.35
2019-02-04T07:14:28.490Z,1023.35
2019-02-04T07:15:28.460Z,1023.36
2019-02-04T07:16:28.448Z,1023.35
2019-02-04T07:17:28.437Z,1023.33
2019-02-04T07:18:28.436Z,1023.32
2019-02-04T07:19:28.421Z,1023.32
2019-02-04T07:20:28.410Z,1023.33
2019-02-04T07:21:28.388Z,1023.39
2019-02-04T07:22:28.386Z,1023.33
2019-02-04T07:23:28.368Z,1023.36
2019-02-04T07:24:28.384Z,1023.35
2019-02-04T07:25:28.344Z,1023.41
2019-02-04T07:26:28.339Z,1023.42
2019-02-04T07:27:28.329Z,1023.39
2019-02-04T07:28:28.372Z,1023.41
2019-02-04T07:29:28.309Z,1023.44
2019-02-04T07:30:28.309Z,1023.37
2019-02-04T07:31:28.286Z,1023.41
2019-02-04T07:32:28.300Z,1023.46
2019-02-04T07:33:28.264Z,1023.44
2019-02-04T07:34:28.305Z,1023.50
2019-02-04T07:35:28.245Z,1023.50
2019-02-04T07:36:28.230Z,1023.55
2019-02-04T07:37:28.214Z,1023.56
2019-02-04T07:38:28.204Z,1023.52
2019-02-04T07:39:28.195Z,1023.57
2019-02-04T07:40:28.210Z,1023.52
2019-02-04T07:41:28.177Z,1023.51
2019-02-04T07:42:28.166Z,1023.50
2019-02-04T07:43:28.155Z,1023.55
2019-02-04T07:44:28.138Z,1023.54
2019-02-04T07:45:28.662Z,1023.55
2019-02-04T07:46:28.122Z,1023.53
2019-02-04T07:47:28.111Z,1023.53
2019-02-04T07:48:28.097Z,1023.55
2019-02-04T07:49:35.030Z,1023.53
2019-02-04T07:50:29.098Z,1023.55
2019-02-04T07:51:28.069Z,1023.52
2019-02-04T07:52:28.058Z,1023.54
2019-02-04T07:53:28.051Z,1023.52
2019-02-04T07:54:28.033Z,1023.58
2019-02-04T07:55:28.020Z,1023.57
2019-02-04T07:56:28.024Z,1023.58
2019-02-04T07:57:28.002Z,1023.58
2019-02-04T07:58:28.000Z,1023.55
2019-02-04T07:59:27.985Z,1023.55
2019-02-04T08:00:27.966Z,1023.57
2019-02-04T08:01:28.012Z,1023.55
2019-02-04T08:02:27.944Z,1023.59
2019-02-04T08:03:27.948Z,1023.58
2019-02-04T08:04:27.927Z,1023.54
2019-02-04T08:05:27.917Z,1023.58
2019-02-04T08:06:27.907Z,1023.54
2019-02-04T08:07:27.949Z,1023.58
2019-02-04T08:08:27.884Z,1023.57
2019-02-04T08:09:27.875Z,1023.59
2019-02-04T08:10:27.861Z,1023.60
2019-02-04T08:11:27.853Z,1023.62
2019-02-04T08:12:27.845Z,1023.62
2019-02-04T08:13:27.846Z,1023.62
2019-02-04T08:14:27.813Z,1023.60
2019-02-04T08:15:27.803Z,1023.57
2019-02-04T08:16:27.792Z,1023.58
2019-02-04T08:17:27.794Z,1023.58
2019-02-04T08:18:27.792Z,1023.59
2019-02-04T08:19:27.761Z,1023.59
2019-02-04T08:20:27.755Z,1023.62
2019-02-04T08:21:27.738Z,1023.68
2019-02-04T08:22:27.731Z,1023.66
2019-02-04T08:23:27.724Z,1023.66
2019-02-04T08:24:27.719Z,1023.65
2019-02-04T08:25:27.701Z,1023.69
2019-02-04T08:26:27.684Z,1023.67
2019-02-04T08:27:27.677Z,1023.66
2019-02-04T08:28:27.676Z,1023.71
2019-02-04T08:29:27.667Z,1023.67
2019-02-04T08:30:27.646Z,1023.72
2019-02-04T08:31:27.632Z,1023.73
2019-02-04T08:32:27.627Z,1023.70
2019-02-04T08:33:27.606Z,1023.76
2019-02-04T08:34:27.610Z,1023.73
2019-02-04T08:35:27.587Z,1023.74
2019-02-04T08:36:27.579Z,1023.78
2019-02-04T08:37:27.563Z,1023.73
2019-02-04T08:38:27.558Z,1023.71
2019-02-04T08:39:27.551Z,1023.73
2019-02-04T08:40:27.542Z,1023.70
2019-02-04T08:41:27.530Z,1023.75
2019-02-04T08:42:27.511Z,1023.71
2019-02-04T08:43:27.503Z,1023.72
2019-02-04T08:44:27.486Z,1023.72
2019-02-04T08:45:27.546Z,1023.73
2019-02-04T08:46:27.469Z,1023.73
2019-02-04T08:47:27.462Z,1023.72
2019-02-04T08:48:27.441Z,1023.74
2019-02-04T08:49:27.435Z,1023.70
2019-02-04T08:50:27.421Z,1023.73
2019-02-04T08:51:27.433Z,1023.77
2019-02-04T08:52:27.404Z,1023.77
2019-02-04T08:53:27.386Z,1023.74
2019-02-04T08:54:27.373Z,1023.72
2019-02-04T08:55:27.375Z,1023.70
2019-02-04T08:56:27.353Z,1023.71
2019-02-04T08:57:27.354Z,1023.70
2019-02-04T08:58:27.331Z,1023.72
2019-02-04T08:59:27.322Z,1023.78
2019-02-04T09:00:27.312Z,1023.65
2019-02-04T09:01:27.300Z,1023.69
2019-02-04T09:02:27.308Z,1023.64
2019-02-04T09:03:27.280Z,1023.68
2019-02-04T09:04:27.271Z,1023.68
2019-02-04T09:05:27.257Z,1023.66
2019-02-04T09:06:27.242Z,1023.75
2019-02-04T09:07:27.230Z,1023.73
2019-02-04T09:08:27.228Z,1023.75
2019-02-04T09:09:27.214Z,1023.74
2019-02-04T09:10:27.203Z,1023.80
2019-02-04T09:11:27.215Z,1023.74
2019-02-04T09:12:27.174Z,1023.79
2019-02-04T09:13:27.177Z,1023.75
2019-02-04T09:14:27.169Z,1023.74
2019-02-04T09:15:27.146Z,1023.79
2019-02-04T09:16:27.137Z,1023.78
2019-02-04T09:17:27.124Z,1023.79
2019-02-04T09:18:27.127Z,1023.78
2019-02-04T09:19:27.097Z,1023.76
2019-02-04T09:20:27.090Z,1023.77
2019-02-04T09:21:27.080Z,1023.80
2019-02-04T09:22:27.064Z,1023.75
2019-02-04T09:23:27.136Z,1023.76
2019-02-04T09:24:27.064Z,1023.78
2019-02-04T09:25:27.086Z,1023.68
2019-02-04T09:26:27.022Z,1023.66
2019-02-04T09:27:27.015Z,1023.64
2019-02-04T09:28:29.820Z,1023.61
2019-02-04T09:29:26.998Z,1023.57
2019-02-04T09:30:26.976Z,1023.57
2019-02-04T09:31:26.970Z,1023.55
2019-02-04T09:32:26.954Z,1023.51
2019-02-04T09:33:26.953Z,1023.53
2019-02-04T09:34:29.806Z,1023.58
2019-02-04T09:35:27.620Z,1023.62
2019-02-04T09:36:26.953Z,1023.66
2019-02-04T09:37:26.899Z,1023.63
2019-02-04T09:38:26.890Z,1023.62
2019-02-04T09:39:28.600Z,1023.64
2019-02-04T09:40:26.874Z,1023.66
2019-02-04T09:41:26.859Z,1023.68
2019-02-04T09:42:26.860Z,1023.68
2019-02-04T09:43:26.842Z,1023.64
2019-02-04T09:44:26.907Z,1023.63
2019-02-04T09:45:27.824Z,1023.62
2019-02-04T09:46:26.806Z,1023.53
2019-02-04T09:47:26.795Z,1023.54
2019-02-04T09:48:26.781Z,1023.52
2019-02-04T09:49:26.775Z,1023.57
2019-02-04T09:50:26.783Z,1023.57
2019-02-04T09:51:26.750Z,1023.59
2019-02-04T09:52:26.743Z,1023.60
2019-02-04T09:53:26.735Z,1023.55
2019-02-04T09:54:26.717Z,1023.53
2019-02-04T09:55:26.716Z,1023.49
2019-02-04T09:56:26.697Z,1023.52
2019-02-04T09:57:26.686Z,1023.53
2019-02-04T09:58:26.673Z,1023.56
2019-02-04T09:59:26.656Z,1023.57
2019-02-04T10:00:26.686Z,1023.55
2019-02-04T10:01:26.638Z,1023.54
2019-02-04T10:02:26.628Z,1023.52
2019-02-04T10:03:26.618Z,1023.55
2019-02-04T10:04:26.601Z,1023.53
2019-02-04T10:05:26.594Z,1023.51
2019-02-04T10:06:26.590Z,1023.54
2019-02-04T10:07:26.585Z,1023.59
2019-02-04T10:08:26.571Z,1023.53
2019-02-04T10:09:27.082Z,1023.53
2019-02-04T10:10:26.543Z,1023.52
2019-02-04T10:11:26.569Z,1023.54
2019-02-04T10:12:26.517Z,1023.54
2019-02-04T10:13:26.508Z,1023.54
2019-02-04T10:14:26.506Z,1023.55
2019-02-04T10:15:26.507Z,1023.56
2019-02-04T10:16:26.577Z,1023.59
2019-02-04T10:17:27.150Z,1023.62
2019-02-04T10:18:26.511Z,1023.52
2019-02-04T10:19:26.577Z,1023.51
2019-02-04T10:20:33.613Z,1023.56
2019-02-04T10:21:27.504Z,1023.58
2019-02-04T10:22:26.417Z,1023.56
2019-02-04T10:23:26.409Z,1023.56
2019-02-04T10:24:26.439Z,1023.55
2019-02-04T10:25:26.484Z,1023.55
2019-02-04T10:26:26.402Z,1023.57
2019-02-04T10:27:26.377Z,1023.61
2019-02-04T10:28:26.341Z,1023.60
2019-02-04T10:29:26.352Z,1023.58
2019-02-04T10:30:26.327Z,1023.56
2019-02-04T10:31:26.331Z,1023.57
2019-02-04T10:32:26.335Z,1023.57
2019-02-04T10:33:26.336Z,1023.61
2019-02-04T10:34:26.308Z,1023.56
2019-02-04T10:35:26.265Z,1023.53
2019-02-04T10:36:26.269Z,1023.56
2019-02-04T10:37:26.260Z,1023.56
2019-02-04T10:38:26.246Z,1023.59
2019-02-04T10:39:26.216Z,1023.57
2019-02-04T10:40:26.236Z,1023.57
2019-02-04T10:41:26.279Z,1023.57
2019-02-04T10:42:26.261Z,1023.52
2019-02-04T10:43:26.226Z,1023.53
2019-02-04T10:44:26.158Z,1023.53
2019-02-04T10:45:26.194Z,1023.49
2019-02-04T10:46:26.142Z,1023.56
2019-02-04T10:47:26.147Z,1023.49
2019-02-04T10:48:26.158Z,1023.44
2019-02-04T10:49:26.144Z,1023.41
2019-02-04T10:50:26.117Z,1023.44
2019-02-04T10:51:26.114Z,1023.41
2019-02-04T10:52:26.097Z,1023.36
2019-02-04T10:53:26.055Z,1023.38
2019-02-04T10:54:26.053Z,1023.41
2019-02-04T10:55:26.071Z,1023.41
2019-02-04T10:56:26.050Z,1023.42
2019-02-04T10:57:26.018Z,1023.44
2019-02-04T10:58:25.998Z,1023.40
2019-02-04T10:59:25.993Z,1023.43
2019-02-04T11:00:26.154Z,1023.44
2019-02-04T11:01:26.685Z,1023.44
2019-02-04T11:02:26.000Z,1023.50
2019-02-04T11:03:26.005Z,1023.49
2019-02-04T11:04:26.619Z,1023.45
2019-02-04T11:05:25.943Z,1023.44
2019-02-04T11:06:25.958Z,1023.48
2019-02-04T11:07:25.911Z,1023.47
2019-02-04T11:08:25.893Z,1023.47
2019-02-04T11:09:25.939Z,1023.40
2019-02-04T11:10:25.911Z,1023.34
2019-02-04T11:11:25.972Z,1023.34
2019-02-04T11:12:25.852Z,1023.36
2019-02-04T11:13:25.864Z,1023.38
2019-02-04T11:14:25.847Z,1023.37
2019-02-04T11:15:25.842Z,1023.33
2019-02-04T11:16:25.827Z,1023.35
2019-02-04T11:17:25.831Z,1023.38
2019-02-04T11:18:25.818Z,1023.31
2019-02-04T11:19:25.800Z,1023.29
2019-02-04T11:20:26.625Z,1023.31
2019-02-04T11:21:25.774Z,1023.40
2019-02-04T11:22:25.741Z,1023.30
2019-02-04T11:23:29.008Z,1023.34
2019-02-04T11:24:25.764Z,1023.30
2019-02-04T11:25:25.769Z,1023.33
2019-02-04T11:26:25.734Z,1023.33
2019-02-04T11:27:25.724Z,1023.30
2019-02-04T11:28:25.737Z,1023.34
2019-02-04T11:29:25.667Z,1023.37
2019-02-04T11:30:25.650Z,1023.39
2019-02-04T11:31:25.642Z,1023.39
2019-02-04T11:32:25.661Z,1023.39
2019-02-04T11:33:25.666Z,1023.40
2019-02-04T11:34:25.614Z,1023.37
2019-02-04T11:35:25.626Z,1023.36
2019-02-04T11:36:25.587Z,1023.39
2019-02-04T11:37:25.572Z,1023.48
2019-02-04T11:38:25.600Z,1023.48
2019-02-04T11:39:25.566Z,1023.48
2019-02-04T11:40:25.549Z,1023.47
2019-02-04T11:41:25.564Z,1023.49
2019-02-04T11:42:25.514Z,1023.44
2019-02-04T11:43:25.536Z,1023.48
2019-02-04T11:44:25.500Z,1023.43
2019-02-04T11:45:25.524Z,1023.44
2019-02-04T11:46:25.473Z,1023.43
2019-02-04T11:47:25.515Z,1023.44
2019-02-04T11:48:25.447Z,1023.40
2019-02-04T11:49:25.457Z,1023.38
2019-02-04T11:50:25.424Z,1023.38
2019-02-04T11:51:25.413Z,1023.36
2019-02-04T11:52:25.433Z,1023.35
2019-02-04T11:53:32.993Z,1023.28
2019-02-04T11:54:26.388Z,1023.27
2019-02-04T11:55:25.374Z,1023.30
2019-02-04T11:56:26.421Z,1023.30
2019-02-04T11:57:25.348Z,1023.28
2019-02-04T11:58:26.190Z,1023.29
2019-02-04T11:59:25.344Z,1023.26
2019-02-04T12:00:25.341Z,1023.25
2019-02-04T12:01:25.338Z,1023.25
2019-02-04T12:02:34.405Z,1023.27
2019-02-04T12:03:26.281Z,1023.24
2019-02-04T12:04:25.279Z,1023.27
2019-02-04T12:05:25.268Z,1023.28